sensor_id;sensor_type;location;lat;lon;timestamp;pressure;altitude;pressure_sealevel;temperature;humidity
23229;BME280;11783;50.350;6.576;2022-11-24T00:01:04;95215.50;;;6.02;100.00
23229;BME280;11783;50.350;6.576;2022-11-24T00:03:30;95221.06;;;6.06;100.00
23229;BME280;11783;50.350;6.576;2022-11-24T00:05:55;95225.31;;;6.07;100.00
23229;BME280;11783;50.350;6.576;2022-11-24T00:08:20;95228.44;;;6.04;100.00
23229;BME280;11783;50.350;6.576;2022-11-24T00:10:45;95213.97;;;6.06;100.00
23229;BME280;11783;50.350;6.576;2022-11-24T00:13:11;95220.75;;;6.02;100.00
23229;BME280;11783;50.350;6.576;2022-11-24T00:15:36;95222.75;;;5.95;100.00
23229;BME280;11783;50.350;6.576;2022-11-24T00:18:02;95221.25;;;5.99;100.00
23229;BME280;11783;50.350;6.576;2022-11-24T00:20:27;95220.75;;;6.02;100.00
23229;BME280;11783;50.350;6.576;2022-11-24T00:22:53;95214.44;;;6.03;100.00
23229;BME280;11783;50.350;6.576;2022-11-24T00:25:18;95209.16;;;6.03;100.00
23229;BME280;11783;50.350;6.576;2022-11-24T00:27:43;95215.25;;;6.04;100.00
23229;BME280;11783;50.350;6.576;2022-11-24T00:30:09;95209.16;;;6.03;100.00
23229;BME280;11783;50.350;6.576;2022-11-24T00:32:35;95213.25;;;6.11;100.00
23229;BME280;11783;50.350;6.576;2022-11-24T00:35:00;95215.88;;;6.11;100.00
23229;BME280;11783;50.350;6.576;2022-11-24T00:37:25;95221.41;;;6.10;100.00
23229;BME280;11783;50.350;6.576;2022-11-24T00:39:51;95216.44;;;6.13;100.00
23229;BME280;11783;50.350;6.576;2022-11-24T00:42:16;95225.19;;;6.14;100.00
23229;BME280;11783;50.350;6.576;2022-11-24T00:44:42;95212.78;;;6.14;100.00
23229;BME280;11783;50.350;6.576;2022-11-24T00:47:08;95229.78;;;6.06;100.00
23229;BME280;11783;50.350;6.576;2022-11-24T00:49:33;95215.63;;;6.13;100.00
23229;BME280;11783;50.350;6.576;2022-11-24T00:52:00;95222.53;;;6.14;100.00
23229;BME280;11783;50.350;6.576;2022-11-24T00:54:25;95229.97;;;6.17;100.00
23229;BME280;11783;50.350;6.576;2022-11-24T00:56:50;95239.47;;;6.01;100.00
23229;BME280;11783;50.350;6.576;2022-11-24T00:59:16;95241.06;;;6.02;100.00
23229;BME280;11783;50.350;6.576;2022-11-24T01:01:41;95245.63;;;6.06;100.00
23229;BME280;11783;50.350;6.576;2022-11-24T01:04:07;95241.13;;;6.07;100.00
23229;BME280;11783;50.350;6.576;2022-11-24T01:06:32;95236.91;;;6.06;100.00
23229;BME280;11783;50.350;6.576;2022-11-24T01:09:00;95242.41;;;6.04;100.00
23229;BME280;11783;50.350;6.576;2022-11-24T01:11:31;95253.06;;;6.10;100.00
23229;BME280;11783;50.350;6.576;2022-11-24T01:14:16;95251.94;;;6.05;100.00
23229;BME280;11783;50.350;6.576;2022-11-24T01:16:42;95250.41;;;6.10;100.00
23229;BME280;11783;50.350;6.576;2022-11-24T01:19:08;95254.56;;;6.05;100.00
23229;BME280;11783;50.350;6.576;2022-11-24T01:21:33;95252.91;;;5.99;100.00
23229;BME280;11783;50.350;6.576;2022-11-24T01:23:59;95253.28;;;6.08;100.00
23229;BME280;11783;50.350;6.576;2022-11-24T01:26:24;95264.41;;;6.10;100.00
23229;BME280;11783;50.350;6.576;2022-11-24T01:28:56;95262.31;;;6.12;100.00
23229;BME280;11783;50.350;6.576;2022-11-24T01:31:28;95257.78;;;6.07;100.00
23229;BME280;11783;50.350;6.576;2022-11-24T01:33:57;95269.03;;;6.03;100.00
23229;BME280;11783;50.350;6.576;2022-11-24T01:36:23;95275.50;;;6.12;100.00
23229;BME280;11783;50.350;6.576;2022-11-24T01:38:48;95267.59;;;6.12;100.00
23229;BME280;11783;50.350;6.576;2022-11-24T01:41:20;95256.41;;;6.05;100.00
23229;BME280;11783;50.350;6.576;2022-11-24T01:43:46;95261.19;;;6.08;100.00
23229;BME280;11783;50.350;6.576;2022-11-24T01:48:49;95259.22;;;5.98;100.00
23229;BME280;11783;50.350;6.576;2022-11-24T01:51:20;95262.47;;;6.05;100.00
23229;BME280;11783;50.350;6.576;2022-11-24T01:54:07;95269.69;;;6.10;100.00
23229;BME280;11783;50.350;6.576;2022-11-24T01:56:36;95261.19;;;6.08;100.00
23229;BME280;11783;50.350;6.576;2022-11-24T01:59:06;95273.03;;;6.05;100.00
23229;BME280;11783;50.350;6.576;2022-11-24T02:01:33;95269.34;;;6.06;100.00
23229;BME280;11783;50.350;6.576;2022-11-24T02:04:00;95270.97;;;6.07;100.00
23229;BME280;11783;50.350;6.576;2022-11-24T02:06:29;95275.84;;;5.99;100.00
23229;BME280;11783;50.350;6.576;2022-11-24T02:09:07;95273.03;;;6.05;100.00
23229;BME280;11783;50.350;6.576;2022-11-24T02:11:37;95277.28;;;6.06;100.00
23229;BME280;11783;50.350;6.576;2022-11-24T02:14:08;95268.56;;;6.06;100.00
23229;BME280;11783;50.350;6.576;2022-11-24T02:16:35;95262.47;;;6.05;100.00
23229;BME280;11783;50.350;6.576;2022-11-24T02:19:03;95270.06;;;6.02;100.00
23229;BME280;11783;50.350;6.576;2022-11-24T02:21:32;95257.78;;;6.07;100.00
23229;BME280;11783;50.350;6.576;2022-11-24T02:26:43;95263.28;;;6.06;100.00
23229;BME280;11783;50.350;6.576;2022-11-24T02:29:10;95269.13;;;6.08;100.00
23229;BME280;11783;50.350;6.576;2022-11-24T02:31:38;95266.34;;;6.15;100.00
23229;BME280;11783;50.350;6.576;2022-11-24T02:34:05;95265.94;;;6.23;100.00
23229;BME280;11783;50.350;6.576;2022-11-24T02:36:31;95265.88;;;6.18;100.00
23229;BME280;11783;50.350;6.576;2022-11-24T02:38:56;95271.47;;;6.21;100.00
23229;BME280;11783;50.350;6.576;2022-11-24T02:41:23;95265.38;;;6.21;100.00
23229;BME280;11783;50.350;6.576;2022-11-24T02:43:54;95254.91;;;6.26;100.00
23229;BME280;11783;50.350;6.576;2022-11-24T02:46:20;95273.06;;;6.22;100.00
23229;BME280;11783;50.350;6.576;2022-11-24T02:48:45;95264.91;;;6.24;100.00
23229;BME280;11783;50.350;6.576;2022-11-24T02:51:11;95264.81;;;6.19;100.00
23229;BME280;11783;50.350;6.576;2022-11-24T02:53:36;95274.91;;;6.22;100.00
23229;BME280;11783;50.350;6.576;2022-11-24T02:56:01;95270.19;;;6.24;100.00
23229;BME280;11783;50.350;6.576;2022-11-24T02:58:27;95260.44;;;6.24;100.00
23229;BME280;11783;50.350;6.576;2022-11-24T03:00:52;95267.84;;;6.27;100.00
23229;BME280;11783;50.350;6.576;2022-11-24T03:03:22;95266.00;;;6.28;100.00
23229;BME280;11783;50.350;6.576;2022-11-24T03:05:47;95278.16;;;6.29;100.00
23229;BME280;11783;50.350;6.576;2022-11-24T03:08:13;95282.66;;;6.28;100.00
23229;BME280;11783;50.350;6.576;2022-11-24T03:10:38;95287.84;;;6.23;100.00
23229;BME280;11783;50.350;6.576;2022-11-24T03:13:03;95273.78;;;6.18;100.00
23229;BME280;11783;50.350;6.576;2022-11-24T03:15:29;95278.03;;;6.19;100.00
23229;BME280;11783;50.350;6.576;2022-11-24T03:17:54;95285.28;;;6.28;100.00
23229;BME280;11783;50.350;6.576;2022-11-24T03:20:21;95286.50;;;6.21;100.00
23229;BME280;11783;50.350;6.576;2022-11-24T03:22:46;95270.81;;;6.31;100.00
23229;BME280;11783;50.350;6.576;2022-11-24T03:25:11;95275.38;;;6.19;100.00
23229;BME280;11783;50.350;6.576;2022-11-24T03:27:37;95281.28;;;6.26;100.00
23229;BME280;11783;50.350;6.576;2022-11-24T03:30:02;95294.66;;;6.19;100.00
23229;BME280;11783;50.350;6.576;2022-11-24T03:32:28;95292.81;;;6.20;100.00
23229;BME280;11783;50.350;6.576;2022-11-24T03:34:53;95305.19;;;6.19;100.00
23229;BME280;11783;50.350;6.576;2022-11-24T03:37:18;95295.22;;;6.21;100.00
23229;BME280;11783;50.350;6.576;2022-11-24T03:39:43;95306.47;;;6.17;100.00
23229;BME280;11783;50.350;6.576;2022-11-24T03:42:09;95301.44;;;6.15;100.00
23229;BME280;11783;50.350;6.576;2022-11-24T03:44:34;95299.84;;;6.14;100.00
23229;BME280;11783;50.350;6.576;2022-11-24T03:46:59;95302.59;;;6.07;100.00
23229;BME280;11783;50.350;6.576;2022-11-24T03:49:25;95310.84;;;6.11;100.00
23229;BME280;11783;50.350;6.576;2022-11-24T03:51:50;95301.81;;;6.07;100.00
23229;BME280;11783;50.350;6.576;2022-11-24T03:54:15;95305.13;;;6.14;100.00
23229;BME280;11783;50.350;6.576;2022-11-24T03:56:41;95303.03;;;6.16;100.00
23229;BME280;11783;50.350;6.576;2022-11-24T03:59:06;95308.78;;;6.30;100.00
23229;BME280;11783;50.350;6.576;2022-11-24T04:01:32;95309.75;;;6.24;100.00
23229;BME280;11783;50.350;6.576;2022-11-24T04:03:58;95307.56;;;6.04;100.00
23229;BME280;11783;50.350;6.576;2022-11-24T04:06:23;95304.88;;;6.16;100.00
23229;BME280;11783;50.350;6.576;2022-11-24T04:08:48;95304.41;;;6.19;100.00
23229;BME280;11783;50.350;6.576;2022-11-24T04:11:14;95301.28;;;6.22;100.00
23229;BME280;11783;50.350;6.576;2022-11-24T04:13:59;95317.66;;;6.24;100.00
23229;BME280;11783;50.350;6.576;2022-11-24T04:16:24;95315.84;;;6.24;100.00
23229;BME280;11783;50.350;6.576;2022-11-24T04:18:53;95313.19;;;6.24;100.00
23229;BME280;11783;50.350;6.576;2022-11-24T04:21:19;95312.41;;;6.24;100.00
23229;BME280;11783;50.350;6.576;2022-11-24T04:23:44;95307.75;;;6.31;100.00
23229;BME280;11783;50.350;6.576;2022-11-24T04:26:09;95316.06;;;6.23;100.00
23229;BME280;11783;50.350;6.576;2022-11-24T04:28:34;95313.44;;;6.23;100.00
23229;BME280;11783;50.350;6.576;2022-11-24T04:31:01;95320.38;;;6.29;100.00
23229;BME280;11783;50.350;6.576;2022-11-24T04:33:27;95321.34;;;6.23;100.00
23229;BME280;11783;50.350;6.576;2022-11-24T04:35:52;95319.81;;;6.27;100.00
23229;BME280;11783;50.350;6.576;2022-11-24T04:38:18;95333.59;;;6.29;100.00
23229;BME280;11783;50.350;6.576;2022-11-24T04:40:43;95336.13;;;6.24;100.00
23229;BME280;11783;50.350;6.576;2022-11-24T04:43:09;95335.41;;;6.28;100.00
23229;BME280;11783;50.350;6.576;2022-11-24T04:45:34;95337.50;;;6.26;100.00
23229;BME280;11783;50.350;6.576;2022-11-24T04:48:00;95345.19;;;6.28;100.00
23229;BME280;11783;50.350;6.576;2022-11-24T04:50:25;95348.06;;;6.26;100.00
23229;BME280;11783;50.350;6.576;2022-11-24T04:52:50;95348.13;;;6.31;100.00
23229;BME280;11783;50.350;6.576;2022-11-24T04:55:17;95349.19;;;6.30;100.00
23229;BME280;11783;50.350;6.576;2022-11-24T04:57:42;95350.13;;;6.24;100.00
23229;BME280;11783;50.350;6.576;2022-11-24T05:00:08;95350.69;;;6.26;100.00
23229;BME280;11783;50.350;6.576;2022-11-24T05:02:34;95358.00;;;6.36;100.00
23229;BME280;11783;50.350;6.576;2022-11-24T05:05:00;95360.09;;;6.34;100.00
23229;BME280;11783;50.350;6.576;2022-11-24T05:07:25;95369.97;;;6.27;100.00
23229;BME280;11783;50.350;6.576;2022-11-24T05:09:50;95361.72;;;6.23;100.00
23229;BME280;11783;50.350;6.576;2022-11-24T05:12:34;95371.06;;;6.14;100.00
23229;BME280;11783;50.350;6.576;2022-11-24T05:15:01;95375.97;;;6.22;100.00
23229;BME280;11783;50.350;6.576;2022-11-24T05:17:28;95383.88;;;6.22;100.00
23229;BME280;11783;50.350;6.576;2022-11-24T05:19:54;95392.75;;;6.16;100.00
23229;BME280;11783;50.350;6.576;2022-11-24T05:22:19;95393.19;;;6.13;100.00
23229;BME280;11783;50.350;6.576;2022-11-24T05:24:44;95385.09;;;6.03;100.00
23229;BME280;11783;50.350;6.576;2022-11-24T05:27:10;95390.38;;;6.03;100.00
23229;BME280;11783;50.350;6.576;2022-11-24T05:29:35;95378.47;;;6.00;100.00
23229;BME280;11783;50.350;6.576;2022-11-24T05:32:00;95381.19;;;6.05;100.00
23229;BME280;11783;50.350;6.576;2022-11-24T05:34:26;95390.84;;;6.00;100.00
23229;BME280;11783;50.350;6.576;2022-11-24T05:36:52;95386.59;;;5.99;100.00
23229;BME280;11783;50.350;6.576;2022-11-24T05:39:18;95393.34;;;5.95;100.00
23229;BME280;11783;50.350;6.576;2022-11-24T05:41:44;95389.47;;;5.86;100.00
23229;BME280;11783;50.350;6.576;2022-11-24T05:44:09;95391.31;;;5.85;100.00
23229;BME280;11783;50.350;6.576;2022-11-24T05:46:35;95396.00;;;5.95;100.00
23229;BME280;11783;50.350;6.576;2022-11-24T05:49:01;95396.59;;;5.85;100.00
23229;BME280;11783;50.350;6.576;2022-11-24T05:51:26;95398.88;;;5.82;100.00
23229;BME280;11783;50.350;6.576;2022-11-24T05:53:51;95401.88;;;5.73;100.00
23229;BME280;11783;50.350;6.576;2022-11-24T05:56:17;95408.25;;;5.89;100.00
23229;BME280;11783;50.350;6.576;2022-11-24T05:58:42;95402.53;;;5.92;100.00
23229;BME280;11783;50.350;6.576;2022-11-24T06:01:07;95400.72;;;5.93;100.00
23229;BME280;11783;50.350;6.576;2022-11-24T06:03:33;95406.78;;;5.93;100.00
23229;BME280;11783;50.350;6.576;2022-11-24T06:05:58;95416.16;;;5.89;100.00
23229;BME280;11783;50.350;6.576;2022-11-24T06:08:23;95419.97;;;5.93;100.00
23229;BME280;11783;50.350;6.576;2022-11-24T06:10:48;95421.34;;;5.84;100.00
23229;BME280;11783;50.350;6.576;2022-11-24T06:13:14;95424.91;;;5.90;100.00
23229;BME280;11783;50.350;6.576;2022-11-24T06:15:39;95430.28;;;5.83;100.00
23229;BME280;11783;50.350;6.576;2022-11-24T06:18:05;95437.97;;;5.85;100.00
23229;BME280;11783;50.350;6.576;2022-11-24T06:20:31;95442.91;;;5.93;100.00
23229;BME280;11783;50.350;6.576;2022-11-24T06:22:57;95432.94;;;5.83;100.00
23229;BME280;11783;50.350;6.576;2022-11-24T06:25:23;95427.66;;;5.83;100.00
23229;BME280;11783;50.350;6.576;2022-11-24T06:27:48;95436.13;;;5.85;100.00
23229;BME280;11783;50.350;6.576;2022-11-24T06:30:13;95440.16;;;5.76;100.00
23229;BME280;11783;50.350;6.576;2022-11-24T06:32:39;95433.06;;;5.76;100.00
23229;BME280;11783;50.350;6.576;2022-11-24T06:35:09;95447.16;;;5.82;100.00
23229;BME280;11783;50.350;6.576;2022-11-24T06:37:35;95439.00;;;5.84;100.00
23229;BME280;11783;50.350;6.576;2022-11-24T06:40:01;95435.66;;;5.88;100.00
23229;BME280;11783;50.350;6.576;2022-11-24T06:42:26;95442.66;;;5.94;100.00
23229;BME280;11783;50.350;6.576;2022-11-24T06:44:51;95451.50;;;5.88;100.00
23229;BME280;11783;50.350;6.576;2022-11-24T06:47:16;95451.63;;;5.93;100.00
23229;BME280;11783;50.350;6.576;2022-11-24T06:49:42;95459.41;;;5.88;100.00
23229;BME280;11783;50.350;6.576;2022-11-24T06:52:07;95457.22;;;5.85;100.00
23229;BME280;11783;50.350;6.576;2022-11-24T06:54:32;95479.13;;;5.74;100.00
23229;BME280;11783;50.350;6.576;2022-11-24T06:56:58;95471.59;;;5.77;100.00
23229;BME280;11783;50.350;6.576;2022-11-24T06:59:24;95471.13;;;5.81;100.00
23229;BME280;11783;50.350;6.576;2022-11-24T07:01:50;95462.75;;;5.72;100.00
23229;BME280;11783;50.350;6.576;2022-11-24T07:04:15;95474.31;;;5.83;100.00
23229;BME280;11783;50.350;6.576;2022-11-24T07:06:41;95484.53;;;5.79;100.00
23229;BME280;11783;50.350;6.576;2022-11-24T07:09:08;95488.78;;;5.80;100.00
23229;BME280;11783;50.350;6.576;2022-11-24T07:11:34;95482.56;;;5.74;100.00
23229;BME280;11783;50.350;6.576;2022-11-24T07:13:59;95490.72;;;5.73;100.00
23229;BME280;11783;50.350;6.576;2022-11-24T07:16:26;95503.88;;;5.73;100.00
23229;BME280;11783;50.350;6.576;2022-11-24T07:18:52;95514.19;;;5.74;100.00
23229;BME280;11783;50.350;6.576;2022-11-24T07:21:19;95517.78;;;5.80;100.00
23229;BME280;11783;50.350;6.576;2022-11-24T07:23:49;95526.81;;;5.72;100.00
23229;BME280;11783;50.350;6.576;2022-11-24T07:26:14;95521.53;;;5.72;100.00
23229;BME280;11783;50.350;6.576;2022-11-24T07:28:40;95534.63;;;5.67;100.00
23229;BME280;11783;50.350;6.576;2022-11-24T07:31:14;95542.97;;;5.76;100.00
23229;BME280;11783;50.350;6.576;2022-11-24T07:33:40;95540.13;;;5.77;100.00
23229;BME280;11783;50.350;6.576;2022-11-24T07:36:06;95549.88;;;5.77;100.00
23229;BME280;11783;50.350;6.576;2022-11-24T07:38:33;95565.00;;;5.82;100.00
23229;BME280;11783;50.350;6.576;2022-11-24T07:41:03;95563.41;;;5.81;100.00
23229;BME280;11783;50.350;6.576;2022-11-24T07:43:33;95559.03;;;5.86;100.00
23229;BME280;11783;50.350;6.576;2022-11-24T07:45:59;95572.94;;;5.93;100.00
23229;BME280;11783;50.350;6.576;2022-11-24T07:48:24;95574.41;;;5.89;100.00
23229;BME280;11783;50.350;6.576;2022-11-24T07:50:50;95577.72;;;5.85;100.00
23229;BME280;11783;50.350;6.576;2022-11-24T07:53:15;95595.63;;;5.83;100.00
23229;BME280;11783;50.350;6.576;2022-11-24T07:55:41;95592.72;;;5.72;100.00
23229;BME280;11783;50.350;6.576;2022-11-24T07:58:07;95595.84;;;5.81;100.00
23229;BME280;11783;50.350;6.576;2022-11-24T08:00:32;95598.38;;;5.88;100.00
23229;BME280;11783;50.350;6.576;2022-11-24T08:02:57;95605.63;;;5.92;100.00
23229;BME280;11783;50.350;6.576;2022-11-24T08:05:23;95602.41;;;5.90;100.00
23229;BME280;11783;50.350;6.576;2022-11-24T08:07:48;95613.53;;;5.92;100.00
23229;BME280;11783;50.350;6.576;2022-11-24T08:10:14;95617.28;;;5.85;100.00
23229;BME280;11783;50.350;6.576;2022-11-24T08:12:39;95620.78;;;5.97;100.00
23229;BME280;11783;50.350;6.576;2022-11-24T08:15:05;95626.84;;;5.97;100.00
23229;BME280;11783;50.350;6.576;2022-11-24T08:17:31;95634.06;;;5.90;100.00
23229;BME280;11783;50.350;6.576;2022-11-24T08:19:57;95639.25;;;5.97;100.00
23229;BME280;11783;50.350;6.576;2022-11-24T08:22:22;95640.84;;;5.98;100.00
23229;BME280;11783;50.350;6.576;2022-11-24T08:24:47;95637.41;;;5.97;100.00
23229;BME280;11783;50.350;6.576;2022-11-24T08:27:17;95645.44;;;6.02;100.00
23229;BME280;11783;50.350;6.576;2022-11-24T08:29:43;95648.06;;;6.02;100.00
23229;BME280;11783;50.350;6.576;2022-11-24T08:32:09;95647.81;;;5.92;100.00
23229;BME280;11783;50.350;6.576;2022-11-24T08:34:35;95650.03;;;5.95;100.00
23229;BME280;11783;50.350;6.576;2022-11-24T08:37:04;95643.25;;;5.99;100.00
23229;BME280;11783;50.350;6.576;2022-11-24T08:39:32;95656.66;;;5.98;100.00
23229;BME280;11783;50.350;6.576;2022-11-24T08:41:57;95655.28;;;5.95;100.00
23229;BME280;11783;50.350;6.576;2022-11-24T08:44:23;95654.38;;;6.01;100.00
23229;BME280;11783;50.350;6.576;2022-11-24T08:46:49;95659.41;;;6.03;100.00
23229;BME280;11783;50.350;6.576;2022-11-24T08:49:15;95664.81;;;6.08;100.00
23229;BME280;11783;50.350;6.576;2022-11-24T08:51:41;95670.53;;;6.05;100.00
23229;BME280;11783;50.350;6.576;2022-11-24T08:54:07;95664.56;;;6.10;100.00
23229;BME280;11783;50.350;6.576;2022-11-24T08:56:34;95671.22;;;6.12;100.00
23229;BME280;11783;50.350;6.576;2022-11-24T08:58:59;95681.56;;;6.14;100.00
23229;BME280;11783;50.350;6.576;2022-11-24T09:01:26;95685.44;;;6.11;100.00
23229;BME280;11783;50.350;6.576;2022-11-24T09:03:51;95683.19;;;6.15;100.00
23229;BME280;11783;50.350;6.576;2022-11-24T09:06:22;95688.91;;;6.12;100.00
23229;BME280;11783;50.350;6.576;2022-11-24T09:08:49;95694.66;;;6.20;100.00
23229;BME280;11783;50.350;6.576;2022-11-24T09:11:15;95693.75;;;6.15;100.00
23229;BME280;11783;50.350;6.576;2022-11-24T09:13:41;95694.41;;;6.10;100.00
23229;BME280;11783;50.350;6.576;2022-11-24T09:16:10;95697.53;;;6.19;100.00
23229;BME280;11783;50.350;6.576;2022-11-24T09:18:36;95708.16;;;6.12;100.00
23229;BME280;11783;50.350;6.576;2022-11-24T09:23:31;95705.44;;;6.19;100.00
23229;BME280;11783;50.350;6.576;2022-11-24T09:26:02;95721.63;;;6.34;100.00
23229;BME280;11783;50.350;6.576;2022-11-24T09:28:27;95719.22;;;6.32;100.00
23229;BME280;11783;50.350;6.576;2022-11-24T09:30:53;95723.00;;;6.25;100.00
23229;BME280;11783;50.350;6.576;2022-11-24T09:33:18;95726.78;;;6.17;100.00
23229;BME280;11783;50.350;6.576;2022-11-24T09:35:43;95733.44;;;6.31;100.00
23229;BME280;11783;50.350;6.576;2022-11-24T09:38:09;95727.69;;;6.23;100.00
23229;BME280;11783;50.350;6.576;2022-11-24T09:40:34;95745.81;;;6.31;100.00
23229;BME280;11783;50.350;6.576;2022-11-24T09:46:10;95753.88;;;6.36;100.00
23229;BME280;11783;50.350;6.576;2022-11-24T09:48:40;95752.16;;;6.42;100.00
23229;BME280;11783;50.350;6.576;2022-11-24T09:51:11;95761.25;;;6.57;100.00
23229;BME280;11783;50.350;6.576;2022-11-24T09:53:41;95770.09;;;6.51;100.00
23229;BME280;11783;50.350;6.576;2022-11-24T09:56:19;95766.53;;;6.57;100.00
23229;BME280;11783;50.350;6.576;2022-11-24T09:59:14;95755.38;;;6.67;100.00
23229;BME280;11783;50.350;6.576;2022-11-24T10:01:42;95758.00;;;6.67;100.00
23229;BME280;11783;50.350;6.576;2022-11-24T10:04:38;95756.31;;;6.73;100.00
23229;BME280;11783;50.350;6.576;2022-11-24T10:09:46;95765.47;;;6.82;100.00
23229;BME280;11783;50.350;6.576;2022-11-24T10:21:08;95777.56;;;6.89;100.00
23229;BME280;11783;50.350;6.576;2022-11-24T10:26:04;95781.34;;;6.93;100.00
23229;BME280;11783;50.350;6.576;2022-11-24T10:28:42;95781.22;;;7.00;100.00
23229;BME280;11783;50.350;6.576;2022-11-24T10:33:47;95788.91;;;7.13;100.00
23229;BME280;11783;50.350;6.576;2022-11-24T10:36:20;95779.22;;;7.19;100.00
23229;BME280;11783;50.350;6.576;2022-11-24T10:39:00;95782.09;;;7.17;100.00
23229;BME280;11783;50.350;6.576;2022-11-24T10:41:55;95785.56;;;7.18;100.00
23229;BME280;11783;50.350;6.576;2022-11-24T10:44:23;95796.22;;;7.35;100.00
23229;BME280;11783;50.350;6.576;2022-11-24T10:46:49;95790.78;;;7.41;100.00
23229;BME280;11783;50.350;6.576;2022-11-24T10:49:22;95791.72;;;7.47;100.00
23229;BME280;11783;50.350;6.576;2022-11-24T10:52:12;95795.25;;;7.52;100.00
23229;BME280;11783;50.350;6.576;2022-11-24T10:54:58;95799.19;;;7.50;100.00
23229;BME280;11783;50.350;6.576;2022-11-24T10:57:31;95790.22;;;7.51;100.00
23229;BME280;11783;50.350;6.576;2022-11-24T10:59:57;95792.94;;;7.56;100.00
23229;BME280;11783;50.350;6.576;2022-11-24T11:02:35;95798.47;;;7.54;100.00
23229;BME280;11783;50.350;6.576;2022-11-24T11:05:32;95798.22;;;7.68;100.00
23229;BME280;11783;50.350;6.576;2022-11-24T11:10:39;95793.28;;;7.59;100.00
23229;BME280;11783;50.350;6.576;2022-11-24T11:13:23;95809.03;;;7.66;100.00
23229;BME280;11783;50.350;6.576;2022-11-24T11:15:49;95810.63;;;7.67;100.00
23229;BME280;11783;50.350;6.576;2022-11-24T11:18:16;95802.22;;;7.70;100.00
23229;BME280;11783;50.350;6.576;2022-11-24T11:20:53;95812.03;;;7.58;100.00
23229;BME280;11783;50.350;6.576;2022-11-24T11:23:26;95813.53;;;7.54;100.00
23229;BME280;11783;50.350;6.576;2022-11-24T11:31:35;95826.84;;;7.59;100.00
23229;BME280;11783;50.350;6.576;2022-11-24T11:34:12;95831.78;;;7.67;100.00
23229;BME280;11783;50.350;6.576;2022-11-24T11:36:43;95834.28;;;7.74;100.00
23229;BME280;11783;50.350;6.576;2022-11-24T11:44:37;95835.56;;;7.71;100.00
23229;BME280;11783;50.350;6.576;2022-11-24T11:47:17;95831.00;;;7.67;100.00
23229;BME280;11783;50.350;6.576;2022-11-24T11:49:47;95837.41;;;7.82;100.00
23229;BME280;11783;50.350;6.576;2022-11-24T11:55:24;95831.50;;;8.20;100.00
23229;BME280;11783;50.350;6.576;2022-11-24T12:04:12;95828.44;;;8.29;100.00
23229;BME280;11783;50.350;6.576;2022-11-24T12:09:58;95836.94;;;8.42;100.00
23229;BME280;11783;50.350;6.576;2022-11-24T12:18:38;95816.31;;;8.44;100.00
23229;BME280;11783;50.350;6.576;2022-11-24T12:21:35;95809.66;;;8.42;100.00
23229;BME280;11783;50.350;6.576;2022-11-24T12:26:49;95811.56;;;8.46;100.00
23229;BME280;11783;50.350;6.576;2022-11-24T12:32:07;95821.53;;;8.56;100.00
23229;BME280;11783;50.350;6.576;2022-11-24T12:37:54;95816.13;;;8.34;100.00
23229;BME280;11783;50.350;6.576;2022-11-24T12:48:20;95814.78;;;8.65;98.23
23229;BME280;11783;50.350;6.576;2022-11-24T12:50:48;95818.50;;;8.81;100.00
23229;BME280;11783;50.350;6.576;2022-11-24T12:53:22;95809.25;;;9.00;100.00
23229;BME280;11783;50.350;6.576;2022-11-24T12:55:49;95818.63;;;9.08;96.85
23229;BME280;11783;50.350;6.576;2022-11-24T13:06:24;95825.50;;;9.26;98.25
23229;BME280;11783;50.350;6.576;2022-11-24T13:08:53;95823.78;;;9.15;96.92
23229;BME280;11783;50.350;6.576;2022-11-24T13:16:32;95832.06;;;9.01;98.54
23229;BME280;11783;50.350;6.576;2022-11-24T13:18:59;95833.66;;;8.86;98.18
23229;BME280;11783;50.350;6.576;2022-11-24T13:24:05;95833.59;;;8.97;99.20
23229;BME280;11783;50.350;6.576;2022-11-24T13:29:30;95833.28;;;8.77;97.10
23229;BME280;11783;50.350;6.576;2022-11-24T13:39:59;95837.72;;;8.43;99.81
23229;BME280;11783;50.350;6.576;2022-11-24T13:42:31;95844.31;;;8.40;99.38
23229;BME280;11783;50.350;6.576;2022-11-24T13:45:01;95841.38;;;8.25;100.00
23229;BME280;11783;50.350;6.576;2022-11-24T13:50:01;95825.78;;;8.40;100.00
23229;BME280;11783;50.350;6.576;2022-11-24T13:52:43;95837.72;;;8.43;100.00
23229;BME280;11783;50.350;6.576;2022-11-24T13:57:45;95841.34;;;8.37;100.00
23229;BME280;11783;50.350;6.576;2022-11-24T14:02:43;95856.41;;;8.36;100.00
23229;BME280;11783;50.350;6.576;2022-11-24T14:05:12;95841.94;;;8.27;100.00
23229;BME280;11783;50.350;6.576;2022-11-24T14:07:40;95839.69;;;8.19;100.00
23229;BME280;11783;50.350;6.576;2022-11-24T14:10:20;95838.50;;;8.15;100.00
23229;BME280;11783;50.350;6.576;2022-11-24T14:12:46;95834.03;;;8.15;100.00
23229;BME280;11783;50.350;6.576;2022-11-24T14:15:25;95835.38;;;8.18;100.00
23229;BME280;11783;50.350;6.576;2022-11-24T14:17:53;95836.19;;;8.02;100.00
23229;BME280;11783;50.350;6.576;2022-11-24T14:20:24;95828.50;;;7.88;100.00
23229;BME280;11783;50.350;6.576;2022-11-24T14:22:50;95823.31;;;7.94;100.00
23229;BME280;11783;50.350;6.576;2022-11-24T14:25:29;95829.88;;;7.91;100.00
23229;BME280;11783;50.350;6.576;2022-11-24T14:27:55;95835.41;;;7.89;100.00
23229;BME280;11783;50.350;6.576;2022-11-24T14:30:22;95826.38;;;7.62;100.00
23229;BME280;11783;50.350;6.576;2022-11-24T14:32:59;95825.72;;;7.55;100.00
23229;BME280;11783;50.350;6.576;2022-11-24T14:35:30;95824.91;;;7.66;100.00
23229;BME280;11783;50.350;6.576;2022-11-24T14:37:56;95826.50;;;7.67;100.00
23229;BME280;11783;50.350;6.576;2022-11-24T14:43:32;95835.63;;;7.48;100.00
23229;BME280;11783;50.350;6.576;2022-11-24T14:48:28;95837.56;;;7.41;100.00
23229;BME280;11783;50.350;6.576;2022-11-24T14:51:05;95843.44;;;7.43;100.00
23229;BME280;11783;50.350;6.576;2022-11-24T14:53:32;95855.50;;;7.39;100.00
23229;BME280;11783;50.350;6.576;2022-11-24T14:56:21;95856.56;;;7.38;100.00
23229;BME280;11783;50.350;6.576;2022-11-24T14:58:47;95851.06;;;7.27;100.00
23229;BME280;11783;50.350;6.576;2022-11-24T15:01:22;95853.47;;;7.17;100.00